Terminal Aerodrome Forecast
Issued by NWS

Home | Current Version | Previous Version | Text Only | Print | Product List | Glossary On
Versions: 1 2 3 4 5 6 7 8 9 10 11 12 13 14 15
375
FTUS45 KABQ 232218 AAA
TAFGUP
TAF AMD
KGUP 232218Z 2322/2418 26015G25KT P6SM VCSH SCT015 BKN035
      TEMPO 2322/2402 2SM -SHSNRA BKN015
     FM240200 24018G30KT P6SM VCSH BKN019
     FM240700 24013G23KT P6SM SCT019 BKN035
     FM241300 25015G25KT P6SM SCT250=

USA.gov is the U.S. government's official web portal to all federal, state and local government web resources and services.